Time;durP1;ratioP1;P1;durP2;ratioP2;P2;SDS_P1;SDS_P2;PMS_P1;PMS_P2;Temp;Humidity;BMP_temperature;BMP_pressure;BME280_temperature;BME280_humidity;BME280_pressure;Samples;Min_cycle;Max_cycle;Signal;HPM_P1;HPM_P2
2022/04/18 00:02:08;;;;;;;20.90;13.38;;;12.20;99.90;;;;;;6241550;23;20003;-85
2022/04/18 00:04:34;;;;;;;22.70;14.07;;;12.10;99.90;;;;;;6241406;23;20079;-87
2022/04/18 00:07:01;;;;;;;20.50;12.98;;;12.20;99.90;;;;;;6241247;23;20002;-86
2022/04/18 00:09:29;;;;;;;19.30;12.45;;;12.20;99.90;;;;;;6241335;23;20042;-85
2022/04/18 00:11:56;;;;;;;24.98;13.13;;;12.10;99.90;;;;;;6214199;23;20372;-87
2022/04/18 00:14:21;;;;;;;18.73;12.75;;;12.10;99.90;;;;;;6241113;23;20028;-87
2022/04/18 00:16:47;;;;;;;18.17;12.30;;;12.10;99.90;;;;;;6241749;23;20503;-85
2022/04/18 00:19:13;;;;;;;17.45;12.43;;;12.10;99.90;;;;;;6215413;23;20011;-86
2022/04/18 00:21:38;;;;;;;17.70;11.80;;;12.00;99.90;;;;;;6241115;23;20348;-87
2022/04/18 00:24:05;;;;;;;20.33;12.10;;;12.10;99.90;;;;;;6241022;23;20059;-86
2022/04/18 00:26:31;;;;;;;18.30;12.23;;;12.10;99.90;;;;;;6241074;23;20437;-86
2022/04/18 00:28:56;;;;;;;20.38;12.68;;;12.10;99.90;;;;;;6213877;23;20001;-86
2022/04/18 00:31:22;;;;;;;17.70;11.70;;;12.10;99.90;;;;;;6240941;23;20004;-86
2022/04/18 00:33:48;;;;;;;16.13;12.45;;;12.10;99.90;;;;;;6242148;23;20089;-87
2022/04/18 00:36:14;;;;;;;18.83;12.10;;;12.10;99.90;;;;;;6242115;23;20075;-87
2022/04/18 00:38:40;;;;;;;16.10;11.77;;;12.10;99.90;;;;;;6214168;23;20040;-85
2022/04/18 00:41:06;;;;;;;17.73;11.73;;;12.10;99.90;;;;;;6240923;23;19996;-86
2022/04/18 00:43:39;;;;;;;20.25;11.73;;;12.10;99.90;;;;;;6241396;23;20168;-85
2022/04/18 00:46:05;;;;;;;13.85;10.57;;;12.00;99.90;;;;;;6241275;23;20012;-86
2022/04/18 00:48:30;;;;;;;18.25;10.18;;;12.00;99.90;;;;;;6240878;23;20345;-85
2022/04/18 00:50:56;;;;;;;15.05;9.65;;;12.00;99.90;;;;;;6213922;23;20429;-86
2022/04/18 00:53:22;;;;;;;14.48;9.65;;;12.10;99.90;;;;;;6213829;23;20483;-85
2022/04/18 00:55:48;;;;;;;12.15;9.45;;;12.00;99.90;;;;;;6241834;23;20307;-85
2022/04/18 00:58:15;;;;;;;11.75;9.43;;;12.00;99.90;;;;;;6213630;23;20004;-85
2022/04/18 01:00:40;;;;;;;10.88;8.18;;;12.00;99.90;;;;;;6240777;23;20004;-86
2022/04/18 01:03:06;;;;;;;11.55;8.55;;;11.90;99.90;;;;;;6240631;23;20036;-84
2022/04/18 01:05:32;;;;;;;11.57;8.63;;;11.80;99.90;;;;;;6240716;23;20031;-86
2022/04/18 01:07:58;;;;;;;10.63;7.53;;;11.80;99.90;;;;;;6240649;23;19997;-85
2022/04/18 01:10:24;;;;;;;11.32;7.93;;;11.80;99.90;;;;;;6240518;23;20406;-85
2022/04/18 01:12:50;;;;;;;9.82;7.78;;;11.80;99.90;;;;;;6214560;23;20004;-86
2022/04/18 01:15:16;;;;;;;11.20;8.43;;;11.80;99.90;;;;;;6241862;23;20058;-85
2022/04/18 01:17:41;;;;;;;11.75;8.82;;;11.80;99.90;;;;;;6240589;23;20008;-86
2022/04/18 01:20:08;;;;;;;10.70;8.57;;;11.80;99.90;;;;;;6240637;23;20011;-85
2022/04/18 01:22:35;;;;;;;13.35;8.52;;;11.70;99.90;;;;;;6240645;23;19996;-85
2022/04/18 01:30:29;;;;;;;12.70;8.68;;;11.70;99.90;;;;;;6240522;23;20011;-86
2022/04/18 01:32:55;;;;;;;11.57;8.48;;;11.80;99.90;;;;;;6240494;23;20049;-87
2022/04/18 01:35:21;;;;;;;10.57;8.30;;;11.80;99.90;;;;;;6214609;23;20004;-85
2022/04/18 01:37:47;;;;;;;10.40;8.10;;;11.80;99.90;;;;;;6241413;23;20004;-85
2022/04/18 01:40:13;;;;;;;10.75;7.90;;;11.70;99.90;;;;;;6240598;23;20039;-86
2022/04/18 01:42:38;;;;;;;10.25;7.55;;;11.80;99.90;;;;;;6240518;23;20004;-86
2022/04/18 01:45:05;;;;;;;12.88;7.82;;;11.80;99.90;;;;;;6240353;23;20015;-86
2022/04/18 01:47:30;;;;;;;14.02;7.43;;;11.70;99.90;;;;;;6240482;23;20012;-87
2022/04/18 01:49:56;;;;;;;9.85;6.78;;;11.70;99.90;;;;;;6240390;23;20337;-87
2022/04/18 01:52:22;;;;;;;9.75;7.00;;;11.50;99.90;;;;;;6241367;23;20000;-84
2022/04/18 01:54:48;;;;;;;12.32;6.97;;;11.50;99.90;;;;;;6241666;23;20353;-85
2022/04/18 01:57:14;;;;;;;9.27;6.68;;;11.60;99.90;;;;;;6240457;23;20445;-85
2022/04/18 01:59:42;;;;;;;10.68;6.70;;;11.60;99.90;;;;;;6240354;23;20001;-85
2022/04/18 02:02:08;;;;;;;;;;;11.50;99.90;;;;;;6240905;23;20007;-86
2022/04/18 02:04:33;;;;;;;10.70;7.28;;;11.50;99.90;;;;;;6240034;23;19907;-87
2022/04/18 02:06:59;;;;;;;9.90;7.10;;;11.50;99.90;;;;;;6242294;23;20377;-90
2022/04/18 02:09:25;;;;;;;8.90;6.88;;;11.50;99.90;;;;;;6242542;23;20437;-86
2022/04/18 02:11:50;;;;;;;10.68;7.05;;;11.50;99.90;;;;;;6216633;23;20011;-86
2022/04/18 02:14:16;;;;;;;9.10;7.07;;;11.50;99.90;;;;;;6242466;23;20003;-86
2022/04/18 02:16:41;;;;;;;8.90;7.40;;;11.40;99.90;;;;;;6242250;23;20011;-87
2022/04/18 02:19:07;;;;;;;9.25;7.15;;;11.40;99.90;;;;;;6242224;23;20000;-85
2022/04/18 02:21:33;;;;;;;9.85;7.82;;;11.40;99.90;;;;;;6242293;23;20004;-87
2022/04/18 02:23:58;;;;;;;12.30;7.38;;;11.30;99.90;;;;;;6242437;23;20083;-88
2022/04/18 02:26:24;;;;;;;9.85;7.55;;;11.30;99.90;;;;;;6243268;23;20000;-87
2022/04/18 02:28:50;;;;;;;9.35;7.63;;;11.30;99.90;;;;;;6243228;23;20008;-87
2022/04/18 02:31:16;;;;;;;8.02;6.80;;;11.30;99.90;;;;;;6242108;23;20011;-89
2022/04/18 02:33:42;;;;;;;9.00;7.18;;;11.20;99.90;;;;;;6242106;23;20035;-85
2022/04/18 02:36:07;;;;;;;9.93;6.78;;;11.30;99.90;;;;;;6241945;23;20097;-85
2022/04/18 02:38:33;;;;;;;11.60;7.35;;;11.20;99.90;;;;;;6242153;23;20004;-85
2022/04/18 02:40:58;;;;;;;10.07;7.70;;;11.20;99.90;;;;;;6242158;23;20010;-84
2022/04/18 02:43:24;;;;;;;12.05;6.35;;;11.20;99.90;;;;;;6243110;23;19996;-85
2022/04/18 02:45:50;;;;;;;11.02;7.38;;;11.20;99.90;;;;;;6241947;23;20015;-85
2022/04/18 02:48:15;;;;;;;12.88;7.03;;;11.10;99.90;;;;;;6214543;23;20458;-84
2022/04/18 02:50:41;;;;;;;10.13;7.30;;;11.10;99.90;;;;;;6241857;23;20012;-85
2022/04/18 02:53:07;;;;;;;11.15;7.60;;;11.10;99.90;;;;;;6241993;23;20073;-85
2022/04/18 02:55:33;;;;;;;11.73;6.90;;;11.10;99.90;;;;;;6241967;23;20004;-85
2022/04/18 02:57:58;;;;;;;12.68;7.82;;;11.10;99.90;;;;;;6215087;23;20000;-86
2022/04/18 03:00:24;;;;;;;11.50;7.47;;;11.10;99.90;;;;;;6243017;23;20514;-86
2022/04/18 03:02:50;;;;;;;11.27;7.35;;;11.10;99.90;;;;;;6241603;23;20075;-85
2022/04/18 03:05:16;;;;;;;10.02;7.05;;;11.10;99.90;;;;;;6241695;23;20487;-85
2022/04/18 03:07:41;;;;;;;14.82;7.68;;;11.10;99.90;;;;;;6241930;23;20027;-86
2022/04/18 03:10:08;;;;;;;15.13;7.30;;;11.00;99.90;;;;;;6242248;23;20008;-85
2022/04/18 03:12:34;;;;;;;11.65;7.10;;;11.00;99.90;;;;;;6241747;23;20433;-86
2022/04/18 03:15:00;;;;;;;12.40;7.28;;;11.00;99.90;;;;;;6214849;23;20011;-85
2022/04/18 03:17:25;;;;;;;13.75;7.68;;;11.00;99.90;;;;;;6242070;23;20006;-86
2022/04/18 03:19:52;;;;;;;11.52;7.32;;;11.00;99.90;;;;;;6241633;23;20009;-85
2022/04/18 03:22:19;;;;;;;10.52;7.13;;;10.90;99.90;;;;;;6241773;23;20000;-85
2022/04/18 03:24:45;;;;;;;12.95;6.90;;;11.00;99.90;;;;;;6241693;23;20441;-84
2022/04/18 03:27:11;;;;;;;9.38;6.85;;;10.90;99.90;;;;;;6241591;23;20003;-85
2022/04/18 03:29:37;;;;;;;10.95;6.72;;;11.00;99.90;;;;;;6241669;23;20000;-86
2022/04/18 03:32:04;;;;;;;8.85;6.47;;;11.00;99.90;;;;;;6214548;23;20030;-86
2022/04/18 03:34:29;;;;;;;9.70;6.15;;;11.10;99.90;;;;;;6241410;23;20000;-85
2022/04/18 03:39:50;;;;;;;13.52;6.03;;;11.00;99.90;;;;;;6206320;23;19996;-85
2022/04/18 03:42:16;;;;;;;10.70;5.80;;;10.90;99.90;;;;;;6241365;23;20062;-85
2022/04/18 03:44:44;;;;;;;10.70;5.72;;;10.90;99.90;;;;;;6241289;23;20004;-85
2022/04/18 03:47:13;;;;;;;10.75;5.88;;;10.90;99.90;;;;;;6241471;23;20061;-85
2022/04/18 03:49:40;;;;;;;8.90;5.65;;;10.90;99.90;;;;;;6241429;23;20341;-85
2022/04/18 03:52:07;;;;;;;8.13;5.57;;;10.90;99.90;;;;;;6241543;23;20429;-85
2022/04/18 03:54:34;;;;;;;7.95;4.80;;;10.90;99.90;;;;;;6241455;23;20032;-85
2022/04/18 03:57:01;;;;;;;7.15;5.00;;;10.80;99.90;;;;;;6241364;23;20388;-85
2022/04/18 03:59:27;;;;;;;7.78;4.63;;;10.80;99.90;;;;;;6242226;23;20019;-85
2022/04/18 04:01:53;;;;;;;8.02;4.15;;;10.80;99.90;;;;;;6241282;23;20340;-86
2022/04/18 04:04:19;;;;;;;5.43;4.00;;;10.70;99.90;;;;;;6241060;23;20304;-86
2022/04/18 04:06:44;;;;;;;5.05;4.05;;;10.70;99.90;;;;;;6214415;23;20031;-85
2022/04/18 04:09:10;;;;;;;5.57;4.00;;;10.70;99.90;;;;;;6241235;23;20067;-85
2022/04/18 04:11:36;;;;;;;9.05;4.40;;;10.80;99.90;;;;;;6241250;23;20000;-85
2022/04/18 04:14:01;;;;;;;8.35;4.10;;;10.80;99.90;;;;;;6241112;23;19996;-84
2022/04/18 04:16:27;;;;;;;6.60;4.30;;;10.70;99.90;;;;;;6242283;23;20011;-85
2022/04/18 04:18:53;;;;;;;6.22;3.83;;;10.70;99.90;;;;;;6241314;23;20008;-84
2022/04/18 04:21:18;;;;;;;5.80;3.90;;;10.70;99.90;;;;;;6241108;23;20007;-85
2022/04/18 04:23:44;;;;;;;8.15;4.13;;;10.90;99.90;;;;;;6241007;23;20049;-84
2022/04/18 04:26:11;;;;;;;5.05;3.70;;;10.90;99.90;;;;;;6241215;23;20012;-84
2022/04/18 04:28:37;;;;;;;7.95;4.43;;;10.90;99.90;;;;;;6240792;23;20000;-84
2022/04/18 04:31:03;;;;;;;6.47;3.78;;;10.90;99.90;;;;;;6241000;23;20058;-84
2022/04/18 04:33:30;;;;;;;8.70;4.47;;;10.90;99.90;;;;;;6242057;23;20132;-84
2022/04/18 04:35:58;;;;;;;8.35;4.18;;;11.00;99.90;;;;;;6241997;23;20062;-84
2022/04/18 04:38:24;;;;;;;7.18;4.28;;;11.10;99.90;;;;;;6240978;23;20004;-84
2022/04/18 04:40:50;;;;;;;6.57;4.30;;;11.10;99.90;;;;;;6240872;23;20000;-84
2022/04/18 04:43:16;;;;;;;10.32;4.70;;;11.20;99.90;;;;;;6240762;23;20532;-84
2022/04/18 04:45:42;;;;;;;11.45;5.25;;;11.20;99.90;;;;;;6213967;23;20071;-85
2022/04/18 04:48:07;;;;;;;8.00;4.90;;;11.10;99.90;;;;;;6240996;23;20007;-85
2022/04/18 04:50:33;;;;;;;11.35;5.40;;;11.20;99.90;;;;;;6240855;23;20432;-84
2022/04/18 04:53:00;;;;;;;8.10;5.70;;;11.20;99.90;;;;;;6241783;23;20073;-84
2022/04/18 04:55:27;;;;;;;10.65;5.70;;;11.10;99.90;;;;;;6213847;23;20004;-85
2022/04/18 04:57:53;;;;;;;11.25;5.72;;;11.20;99.90;;;;;;6240682;23;20012;-85
2022/04/18 05:00:19;;;;;;;8.43;5.45;;;11.10;99.90;;;;;;6240903;23;19997;-84
2022/04/18 05:02:45;;;;;;;9.30;5.65;;;11.10;99.90;;;;;;6240874;23;20369;-84
2022/04/18 05:05:11;;;;;;;7.00;4.88;;;11.10;99.90;;;;;;6241037;23;20062;-84
2022/04/18 05:07:37;;;;;;;9.25;5.13;;;10.90;99.90;;;;;;6240881;23;20003;-85
2022/04/18 05:10:03;;;;;;;9.75;5.30;;;10.90;99.90;;;;;;6241869;23;20008;-86
2022/04/18 05:12:31;;;;;;;11.85;5.40;;;10.90;99.90;;;;;;6241631;23;20077;-84
2022/04/18 05:15:06;;;;;;;8.10;5.72;;;10.90;99.90;;;;;;6240842;23;20011;-84
2022/04/18 05:17:32;;;;;;;9.77;5.97;;;10.90;99.90;;;;;;6241801;23;20079;-83
2022/04/18 05:19:57;;;;;;;11.23;6.50;;;11.00;99.90;;;;;;6240657;23;20388;-84
2022/04/18 05:22:23;;;;;;;11.57;6.68;;;10.80;99.90;;;;;;6240649;23;20663;-84
2022/04/18 05:24:49;;;;;;;13.30;6.45;;;10.70;99.90;;;;;;6213624;23;20078;-84
2022/04/18 05:27:16;;;;;;;9.77;6.45;;;10.80;99.90;;;;;;6240666;23;20023;-84
2022/04/18 05:29:44;;;;;;;11.70;6.97;;;10.80;99.90;;;;;;6213826;23;20008;-84
2022/04/18 05:32:10;;;;;;;;;;;10.80;99.90;;;;;;6241197;23;20000;-84
2022/04/18 05:34:36;;;;;;;10.90;6.25;;;10.80;99.90;;;;;;6240689;23;19899;-83
2022/04/18 05:37:02;;;;;;;10.50;6.50;;;10.90;99.90;;;;;;6241490;23;20467;-85
2022/04/18 05:39:27;;;;;;;11.73;7.10;;;10.90;99.90;;;;;;6240013;23;20449;-83
2022/04/18 05:41:53;;;;;;;13.05;7.70;;;10.90;99.90;;;;;;6240599;23;20008;-84
2022/04/18 05:44:19;;;;;;;14.75;7.45;;;10.90;99.90;;;;;;6240933;23;20012;-85
2022/04/18 05:46:44;;;;;;;13.02;7.50;;;10.90;99.90;;;;;;6240567;23;20003;-84
2022/04/18 05:49:10;;;;;;;12.95;7.25;;;10.90;99.90;;;;;;6240577;23;20000;-84
2022/04/18 05:51:38;;;;;;;14.27;7.88;;;10.90;99.90;;;;;;6240383;23;20056;-83
2022/04/18 05:54:04;;;;;;;12.75;8.15;;;11.00;99.90;;;;;;6241413;23;20022;-85
2022/04/18 05:56:30;;;;;;;12.95;7.55;;;11.10;99.90;;;;;;6240573;23;20508;-84
2022/04/18 05:58:56;;;;;;;16.25;8.10;;;11.00;99.90;;;;;;6240479;23;20213;-84
2022/04/18 06:01:22;;;;;;;12.45;7.30;;;11.00;99.90;;;;;;6240437;23;20333;-84
2022/04/18 06:03:48;;;;;;;13.07;7.90;;;11.00;99.90;;;;;;6240357;23;20079;-85
2022/04/18 06:06:14;;;;;;;11.52;7.40;;;11.00;99.90;;;;;;6213484;23;20016;-84
2022/04/18 06:08:40;;;;;;;16.42;7.82;;;11.00;99.90;;;;;;6213531;23;20020;-84
2022/04/18 06:11:06;;;;;;;11.98;7.13;;;11.10;99.90;;;;;;6241618;23;20007;-85
2022/04/18 06:13:32;;;;;;;13.77;7.47;;;11.10;99.90;;;;;;6241486;23;20072;-84
2022/04/18 06:15:58;;;;;;;16.08;7.00;;;11.10;99.90;;;;;;6213518;23;20028;-85
2022/04/18 06:18:24;;;;;;;17.73;7.20;;;11.20;99.90;;;;;;6240374;23;20004;-84
2022/04/18 06:20:49;;;;;;;15.98;7.10;;;11.20;99.90;;;;;;6240338;23;20337;-86
2022/04/18 06:23:16;;;;;;;14.18;7.07;;;11.20;99.90;;;;;;6240297;23;20038;-87
2022/04/18 06:25:43;;;;;;;11.90;7.00;;;11.20;99.90;;;;;;6240465;23;20083;-85
2022/04/18 06:28:08;;;;;;;15.18;6.43;;;11.10;99.90;;;;;;6213761;23;20004;-86
2022/04/18 06:30:34;;;;;;;13.32;6.75;;;11.20;99.90;;;;;;6241393;23;20456;-86
2022/04/18 06:33:00;;;;;;;10.23;6.18;;;11.20;99.90;;;;;;6213348;23;20011;-86
2022/04/18 06:35:25;;;;;;;17.95;6.60;;;11.30;99.90;;;;;;6213399;23;20505;-86
2022/04/18 06:37:51;;;;;;;14.90;6.45;;;11.40;99.90;;;;;;6240103;23;20314;-86
2022/04/18 06:40:17;;;;;;;10.52;5.97;;;11.40;99.90;;;;;;6240428;23;20451;-85
2022/04/18 06:42:42;;;;;;;9.57;6.05;;;11.50;99.90;;;;;;6240324;23;20441;-85
2022/04/18 06:45:09;;;;;;;12.77;6.25;;;11.50;99.90;;;;;;6241012;23;20008;-85
2022/04/18 06:47:34;;;;;;;13.63;5.82;;;11.50;99.90;;;;;;6241150;23;20000;-87
2022/04/18 06:50:00;;;;;;;10.80;5.72;;;11.60;99.90;;;;;;6213295;23;20035;-87
2022/04/18 06:52:26;;;;;;;11.68;5.55;;;11.50;99.90;;;;;;6241543;23;19997;-86
2022/04/18 06:54:52;;;;;;;12.93;5.57;;;11.50;99.90;;;;;;6242013;23;20027;-86
2022/04/18 06:57:17;;;;;;;12.15;5.95;;;11.60;99.90;;;;;;6242100;23;20000;-86
2022/04/18 06:59:45;;;;;;;16.65;5.22;;;11.60;99.90;;;;;;6241978;23;20073;-85
2022/04/18 07:02:11;;;;;;;12.85;5.22;;;11.70;99.90;;;;;;6242224;23;20421;-85
2022/04/18 07:04:37;;;;;;;11.45;5.15;;;11.70;99.90;;;;;;6242621;23;20011;-85
2022/04/18 07:07:05;;;;;;;13.93;4.80;;;11.80;99.90;;;;;;6241604;23;20048;-86
2022/04/18 07:09:31;;;;;;;13.10;4.97;;;11.80;99.90;;;;;;6242056;23;20030;-86
2022/04/18 07:11:56;;;;;;;11.05;5.60;;;11.80;99.90;;;;;;6241752;23;20449;-85
2022/04/18 07:14:23;;;;;;;10.38;4.88;;;11.80;99.90;;;;;;6242002;23;20004;-87
2022/04/18 07:16:49;;;;;;;13.45;4.88;;;11.80;99.90;;;;;;6241893;23;20000;-86
2022/04/18 07:19:15;;;;;;;11.65;4.50;;;11.80;99.90;;;;;;6250108;23;20007;-88
2022/04/18 07:21:41;;;;;;;9.35;4.47;;;11.80;99.90;;;;;;6264485;23;20048;-88
2022/04/18 07:24:07;;;;;;;8.73;4.10;;;11.90;99.90;;;;;;6237481;23;20008;-88
2022/04/18 07:26:33;;;;;;;7.55;4.10;;;11.90;99.90;;;;;;6227953;23;20083;-89
2022/04/18 07:28:59;;;;;;;10.50;3.95;;;11.90;99.90;;;;;;6244375;23;19996;-91
2022/04/18 07:31:24;;;;;;;13.35;3.83;;;11.90;99.90;;;;;;6216593;23;20086;-90
2022/04/18 07:33:51;;;;;;;6.53;3.67;;;11.90;99.90;;;;;;6237694;23;20310;-91
2022/04/18 07:36:17;;;;;;;12.50;3.45;;;11.90;99.90;;;;;;6214826;23;20407;-92
2022/04/18 07:38:51;;;;;;;10.05;3.13;;;12.00;99.90;;;;;;6241694;23;20476;-90
2022/04/18 07:41:23;;;;;;;8.32;3.13;;;11.90;99.90;;;;;;6241806;23;20012;-91
2022/04/18 07:43:49;;;;;;;11.98;3.40;;;12.00;99.90;;;;;;6242146;23;20000;-91
2022/04/18 07:46:16;;;;;;;9.70;3.05;;;12.10;99.90;;;;;;6242168;23;20099;-90
2022/04/18 07:48:42;;;;;;;9.68;3.10;;;12.10;99.90;;;;;;6242492;23;20022;-87
2022/04/18 07:53:52;;;;;;;7.88;2.65;;;12.00;99.90;;;;;;6241903;23;20010;-92
2022/04/18 07:56:20;;;;;;;6.13;2.50;;;12.10;99.90;;;;;;6215128;23;20008;-90
2022/04/18 07:58:46;;;;;;;8.73;2.65;;;12.10;99.90;;;;;;6242191;23;19996;-88
2022/04/18 08:01:12;;;;;;;11.45;2.85;;;12.10;99.90;;;;;;6215816;23;20004;-88
2022/04/18 08:03:38;;;;;;;11.52;2.90;;;12.20;99.90;;;;;;6242381;23;20008;-90
2022/04/18 08:06:04;;;;;;;7.97;2.53;;;12.20;99.90;;;;;;6215410;23;20026;-87
2022/04/18 08:08:30;;;;;;;12.80;2.63;;;12.20;99.90;;;;;;6215493;23;20026;-88
2022/04/18 08:11:00;;;;;;;10.45;2.55;;;12.10;99.90;;;;;;6215524;23;20014;-92
2022/04/18 08:13:26;;;;;;;10.50;2.75;;;12.10;99.90;;;;;;6215171;23;20004;-89
2022/04/18 08:15:52;;;;;;;10.73;2.70;;;12.20;99.90;;;;;;6241656;23;20007;-89
2022/04/18 08:18:18;;;;;;;10.13;2.53;;;12.20;99.90;;;;;;6242076;23;20004;-93
2022/04/18 08:20:44;;;;;;;12.80;3.22;;;12.20;99.90;;;;;;6214882;23;20015;-87
2022/04/18 08:23:10;;;;;;;14.80;3.10;;;12.20;99.90;;;;;;6215687;23;20034;-88
2022/04/18 08:25:35;;;;;;;14.85;2.78;;;12.20;99.90;;;;;;6214486;23;20016;-87
2022/04/18 08:28:01;;;;;;;10.15;2.60;;;12.30;99.90;;;;;;6241218;23;20413;-87
2022/04/18 08:30:27;;;;;;;10.57;2.63;;;12.30;99.90;;;;;;6241164;23;20000;-88
2022/04/18 08:32:53;;;;;;;12.55;2.63;;;12.20;99.90;;;;;;6241224;23;20383;-87
2022/04/18 08:35:19;;;;;;;8.57;2.60;;;12.30;99.90;;;;;;6214585;23;20008;-88
2022/04/18 08:37:45;;;;;;;10.60;2.42;;;12.30;99.90;;;;;;6241191;23;20028;-85
2022/04/18 08:40:11;;;;;;;10.52;2.80;;;12.30;99.90;;;;;;6215108;23;20409;-88
2022/04/18 08:42:39;;;;;;;10.25;2.65;;;12.50;99.90;;;;;;6241918;23;20007;-93
2022/04/18 08:45:13;;;;;;;11.60;3.20;;;12.40;99.90;;;;;;6218214;23;20434;-90
2022/04/18 08:53:30;;;;;;;10.05;2.60;;;14.30;99.90;;;;;;6258193;23;19996;-91
2022/04/18 08:56:00;;;;;;;9.60;1.98;;;13.10;99.90;;;;;;6255846;23;20054;-93
2022/04/18 08:58:27;;;;;;;9.40;2.00;;;13.00;99.90;;;;;;6219500;23;20004;-92
2022/04/18 09:00:54;;;;;;;6.38;1.85;;;13.20;99.90;;;;;;6216030;23;20004;-87
2022/04/18 09:03:23;;;;;;;8.57;1.77;;;13.20;99.90;;;;;;6215516;23;20065;-92
2022/04/18 09:06:13;;;;;;;5.88;1.60;;;13.10;99.90;;;;;;6216810;23;20012;-91
2022/04/18 09:09:01;;;;;;;6.35;1.73;;;13.10;99.90;;;;;;6218723;23;20032;-89
2022/04/18 09:18:49;;;;;;;;;;;;;;;;;;;;;
2022/04/18 09:29:01;;;;;;;11.13;2.20;;;13.20;99.90;;;;;;5728020;24;20083;-94
2022/04/18 09:32:10;;;;;;;5.30;2.00;;;14.30;99.90;;;;;;5859037;24;20009;-92
2022/04/18 09:34:53;;;;;;;;;;;;;;;;;;;;;
2022/04/18 09:40:46;;;;;;;8.20;2.25;;;14.00;99.90;;;;;;5967798;24;20095;-91
2022/04/18 09:43:23;;;;;;;6.38;1.42;;;14.00;99.90;;;;;;5954134;24;20019;-92
2022/04/18 09:45:52;;;;;;;6.03;1.60;;;14.00;99.90;;;;;;6141458;23;20420;-92
2022/04/18 09:49:00;;;;;;;6.55;1.50;;;13.90;99.90;;;;;;6244882;23;19996;-95
2022/04/18 09:51:30;;;;;;;9.10;1.60;;;13.80;99.90;;;;;;6244373;23;20007;-94
2022/04/18 09:53:57;;;;;;;8.27;3.67;;;14.00;99.90;;;;;;6237564;23;19997;-87
2022/04/18 09:56:25;;;;;;;6.10;1.27;;;14.10;99.90;;;;;;6259604;23;20000;-87
2022/04/18 09:58:51;;;;;;;7.68;2.03;;;14.10;99.90;;;;;;6262819;23;19996;-87
2022/04/18 10:01:17;;;;;;;10.90;1.42;;;;;;;;;;6261953;23;20127;-91
2022/04/18 10:03:44;;;;;;;7.80;1.65;;;14.20;99.90;;;;;;6218165;23;20012;-89
2022/04/18 10:06:10;;;;;;;4.28;1.27;;;14.30;99.90;;;;;;6215393;23;20099;-90
2022/04/18 10:08:37;;;;;;;9.45;1.42;;;14.30;99.90;;;;;;6241417;23;20433;-89
2022/04/18 10:11:05;;;;;;;7.75;1.60;;;14.30;99.90;;;;;;6213592;23;20018;-88
2022/04/18 10:13:31;;;;;;;2.72;1.25;;;14.30;99.90;;;;;;6241423;23;19997;-90
2022/04/18 10:16:00;;;;;;;7.65;1.90;;;14.30;99.90;;;;;;6241024;23;19996;-88
2022/04/18 10:18:27;;;;;;;7.15;1.95;;;14.10;99.90;;;;;;6240643;23;20337;-88
2022/04/18 10:21:08;;;;;;;7.18;1.35;;;14.10;99.90;;;;;;6240896;23;20463;-92
2022/04/18 10:23:52;;;;;;;5.32;1.70;;;14.00;99.90;;;;;;6241265;23;20034;-89
2022/04/18 10:26:45;;;;;;;7.90;1.45;;;13.90;99.90;;;;;;6215767;23;20452;-90
2022/04/18 10:29:20;;;;;;;5.85;1.50;;;14.10;99.90;;;;;;6242751;23;20008;-91
2022/04/18 10:31:57;;;;;;;7.90;1.63;;;14.20;99.90;;;;;;6218469;23;20000;-93
2022/04/18 10:34:24;;;;;;;5.93;1.40;;;14.50;99.90;;;;;;6243398;23;20050;-91
2022/04/18 10:36:54;;;;;;;5.60;1.45;;;14.40;99.90;;;;;;6244948;23;19999;-89
2022/04/18 10:39:21;;;;;;;10.30;1.60;;;14.30;99.90;;;;;;6216680;23;20001;-89
2022/04/18 10:41:53;;;;;;;8.13;1.90;;;14.50;99.90;;;;;;6244088;23;20098;-92
2022/04/18 10:44:39;;;;;;;6.20;1.50;;;14.50;99.90;;;;;;6217833;23;20011;-91
2022/04/18 10:47:05;;;;;;;5.22;1.83;;;14.50;99.90;;;;;;6243221;23;20000;-91
2022/04/18 10:49:31;;;;;;;7.90;1.70;;;14.40;99.90;;;;;;6215676;23;20008;-89
2022/04/18 10:52:05;;;;;;;6.22;1.55;;;14.40;99.90;;;;;;6242628;23;20018;-90
2022/04/18 10:54:31;;;;;;;10.23;2.03;;;14.40;99.90;;;;;;6215786;23;20008;-90
2022/04/18 10:57:11;;;;;;;5.30;1.60;;;14.40;99.90;;;;;;6242668;23;20373;-92
2022/04/18 10:59:44;;;;;;;8.73;1.88;;;14.30;99.90;;;;;;6242945;23;20008;-92
2022/04/18 11:02:42;;;;;;;4.95;1.52;;;14.30;99.90;;;;;;6242879;23;20000;-89
2022/04/18 11:05:08;;;;;;;7.97;1.73;;;14.40;99.90;;;;;;6243072;23;20016;-91
2022/04/18 11:07:39;;;;;;;5.38;1.45;;;14.30;99.90;;;;;;6243030;23;20066;-90
2022/04/18 11:10:25;;;;;;;6.07;1.42;;;14.40;99.90;;;;;;6218107;23;20038;-91
2022/04/18 11:12:56;;;;;;;8.00;2.03;;;14.60;99.90;;;;;;6219681;23;20007;-91
2022/04/18 11:15:22;;;;;;;7.07;2.80;;;14.60;99.90;;;;;;6217201;23;20011;-86
2022/04/18 11:17:48;;;;;;;6.82;1.95;;;14.50;99.90;;;;;;6217341;23;20000;-90
2022/04/18 11:20:31;;;;;;;9.73;1.50;;;14.60;99.90;;;;;;6242360;23;20020;-88
2022/04/18 11:23:19;;;;;;;3.72;0.93;;;14.60;99.90;;;;;;6215351;23;20004;-89
2022/04/18 11:25:58;;;;;;;4.68;1.13;;;14.40;99.90;;;;;;6243266;23;20015;-88
2022/04/18 11:28:35;;;;;;;7.97;1.35;;;14.40;99.90;;;;;;6242509;23;20340;-88
2022/04/18 11:31:07;;;;;;;5.32;1.20;;;14.80;99.90;;;;;;6242079;23;20004;-87
2022/04/18 11:33:41;;;;;;;7.40;1.52;;;14.90;99.90;;;;;;6243503;23;20000;-89
2022/04/18 11:36:07;;;;;;;16.33;6.28;;;15.00;99.90;;;;;;6242512;23;20071;-91
2022/04/18 11:38:33;;;;;;;8.00;1.42;;;15.10;99.90;;;;;;6241608;23;19997;-88
2022/04/18 11:40:58;;;;;;;5.15;1.20;;;15.20;99.90;;;;;;6242076;23;20012;-87
2022/04/18 11:43:24;;;;;;;5.45;1.13;;;15.00;99.90;;;;;;6242457;23;20004;-86
2022/04/18 11:45:50;;;;;;;5.13;1.13;;;15.10;99.90;;;;;;6244145;23;20054;-90
2022/04/18 11:48:22;;;;;;;3.70;1.20;;;15.20;99.90;;;;;;6241672;23;20002;-88
2022/04/18 11:50:48;;;;;;;5.07;1.20;;;15.20;99.90;;;;;;6235903;23;20032;-89
2022/04/18 11:53:13;;;;;;;4.68;1.00;;;14.90;99.90;;;;;;6241788;23;19996;-92
2022/04/18 11:55:44;;;;;;;6.13;1.33;;;15.10;99.90;;;;;;6216631;23;20007;-90
2022/04/18 11:58:11;;;;;;;6.40;1.55;;;15.00;99.90;;;;;;6220846;23;20000;-87
2022/04/18 12:08:51;;;;;;;4.53;1.30;;;15.40;99.90;;;;;;6247461;23;20012;-89
2022/04/18 12:11:18;;;;;;;3.85;1.17;;;15.00;99.90;;;;;;6247373;23;20000;-89
2022/04/18 12:13:47;;;;;;;10.60;1.30;;;15.00;99.90;;;;;;6251534;23;20433;-93
2022/04/18 12:16:19;;;;;;;5.93;1.48;;;15.00;99.90;;;;;;6231334;23;20026;-89
2022/04/18 12:18:45;;;;;;;5.78;1.10;;;15.00;99.90;;;;;;6253798;23;20011;-91
2022/04/18 12:21:15;;;;;;;3.63;1.10;;;15.20;99.90;;;;;;6229299;23;20075;-89
2022/04/18 12:23:41;;;;;;;4.60;1.38;;;15.40;99.90;;;;;;6226450;23;20061;-91
2022/04/18 12:26:12;;;;;;;6.10;1.50;;;15.50;99.90;;;;;;6256404;23;20345;-87
2022/04/18 12:28:43;;;;;;;4.53;1.42;;;15.40;99.90;;;;;;6255694;23;20058;-89
2022/04/18 12:31:10;;;;;;;7.00;1.13;;;15.30;99.90;;;;;;6212231;23;20004;-89
2022/04/18 12:33:47;;;;;;;5.53;1.17;;;15.40;99.90;;;;;;6265795;23;20055;-91
2022/04/18 12:36:44;;;;;;;5.88;1.08;;;15.50;99.90;;;;;;6239930;23;20325;-90
2022/04/18 12:39:22;;;;;;;5.32;1.50;;;15.70;99.90;;;;;;6246645;23;20302;-91
2022/04/18 12:41:55;;;;;;;4.70;0.90;;;15.70;98.10;;;;;;6243197;23;20061;-92
2022/04/18 12:44:20;;;;;;;4.55;1.13;;;15.50;98.40;;;;;;6243385;23;20053;-91
2022/04/18 12:47:16;;;;;;;5.18;1.08;;;15.30;99.90;;;;;;6216325;23;20348;-93
2022/04/18 12:50:05;;;;;;;5.20;1.20;;;15.40;99.50;;;;;;6219520;23;20004;-93
2022/04/18 12:52:33;;;;;;;5.90;1.35;;;15.40;99.40;;;;;;6246937;23;20384;-89
2022/04/18 12:55:07;;;;;;;3.72;0.95;;;15.50;99.90;;;;;;6251176;23;20008;-94
2022/04/18 12:58:22;;;;;;;3.55;1.10;;;15.40;99.90;;;;;;6239012;23;20444;-90
2022/04/18 13:00:50;;;;;;;3.75;1.20;;;15.40;99.00;;;;;;6241541;23;20073;-92
2022/04/18 13:03:20;;;;;;;3.88;1.30;;;15.40;99.90;;;;;;6214284;23;20019;-93
2022/04/18 13:05:50;;;;;;;6.38;1.75;;;15.50;98.90;;;;;;6215234;23;20476;-92
2022/04/18 13:08:17;;;;;;;3.80;1.10;;;15.50;99.90;;;;;;6215311;23;20004;-93
2022/04/18 13:14:23;;;;;;;4.45;1.10;;;16.20;96.80;;;;;;6198828;23;20012;-92
2022/04/18 13:17:10;;;;;;;5.57;1.17;;;15.70;94.90;;;;;;6216035;23;20000;-90
2022/04/18 13:20:06;;;;;;;;;;;;;;;;;;;;;
2022/04/18 13:25:51;;;;;;;5.95;1.15;;;15.50;96.50;;;;;;6242886;23;20738;-92
2022/04/18 13:45:19;;;;;;;6.32;1.17;;;16.10;99.90;;;;;;5944266;24;19907;-90
2022/04/18 13:47:50;;;;;;;3.63;1.00;;;16.30;97.90;;;;;;5842683;24;20376;-89
2022/04/18 13:50:19;;;;;;;7.85;1.20;;;16.20;95.80;;;;;;6081109;23;20065;-91
2022/04/18 13:52:54;;;;;;;;;;;;;;;;;;;;;
2022/04/18 13:55:31;;;;;;;5.78;1.10;;;15.70;95.20;;;;;;6242047;23;20446;-90
2022/04/18 13:58:22;;;;;;;3.70;1.20;;;15.50;96.80;;;;;;6215687;23;20000;-91
2022/04/18 14:00:58;;;;;;;5.95;1.20;;;15.70;97.40;;;;;;6215880;23;20004;-90